• Join FlightAware (Why Join?)
  • Login
  • US Flag 
08:05PM EST


 

Airport Tracker/Info


-or-


 

Live Flight TrackerFlight Track Log ✈ THY1074 ✈ 16-Sep-2013 ✈ LATI / TIA - LTBA / IST

Flight Track Log - Related Links

Times and Time Zones

All times are in EDT time to prevent confusion due to time zone crossing. See the THY1074 flight status page for this flight to view local times or setup timezone preferences in your user account.

Time Position Orientation Groundspeed Altitude Reporting Facility
EDT Latitude Longitude Course Direction KTS MPH feet Rate Location/Type
03:32AM 41.3549 22.5824 91° East  Level Estimated
03:33AM 41.3503 22.7185 93° East  Level Estimated
03:34AM 41.3455 22.8546 93° East  Level Estimated
03:35AM 41.3405 22.9907 93° East  Level Estimated
03:36AM 41.3354 23.1268 93° East  Level Estimated
03:37AM 41.3302 23.2628 93° East  Level Estimated
03:38AM 41.3248 23.3988 93° East  Level Estimated
03:39AM 41.3192 23.5348 93° East  Level Estimated
03:40AM 41.3134 23.6708 93° East  Level Estimated
03:41AM 41.3075 23.8067 93° East  Level Estimated
03:42AM 41.3015 23.9426 93° East  Level Estimated
03:43AM 41.2953 24.0785 93° East  Level Estimated
03:44AM 41.2889 24.2144 94° East  Level Estimated
03:45AM 41.2823 24.3502 94° East  Level Estimated
03:46AM 41.2757 24.4860 94° East  Level Estimated
03:47AM 41.2688 24.6218 94° East  Level Estimated
03:48AM 41.2618 24.7576 94° East  Level Estimated
03:49AM 41.2546 24.8933 94° East  Level Estimated
03:50AM 41.2473 25.0290 94° East  Level Estimated
03:51AM 41.2398 25.1646 94° East  Level Estimated
03:52AM 41.2321 25.3003 94° East  Level Estimated
03:53AM 41.2243 25.4359 94° East  Level Estimated
03:54AM 41.2163 25.5714 94° East  Level Estimated
03:55AM 41.2082 25.7070 95° East  Level Estimated
03:56AM 41.1999 25.8425 95° East  Level Estimated
03:57AM 41.1915 25.9779 95° East  Level Estimated
03:58AM 41.1829 26.1134 95° East  Level Estimated
03:59AM 41.1740 26.2508 95° East  Level Estimated
04:00AM 41.1649 26.3882 95° East  Level Estimated
04:01AM 41.1557 26.5256 95° East  Level Estimated
04:02AM 41.1463 26.6629 95° East  Level Estimated
04:03AM 41.1367 26.8002 95° East  Level Estimated
04:04AM 41.1270 26.9375 95° East  Level Estimated
04:05AM 41.1171 27.0747 95° East  Level Estimated
04:06AM 41.1071 27.2119 96° East  Level Estimated
04:07AM 41.0969 27.3490 96° East  Level Estimated
04:08AM 41.0865 27.4861 96° East  Level Estimated
04:09AM 41.0760 27.6231 96° East  Level Estimated
04:10AM 41.0653 27.7601 96° East  Level Estimated
04:11AM 41.0545 27.8971 96° East  Level Estimated
04:12AM 41.0434 28.0340 96° East  Level Estimated
04:13AM 41.0323 28.1708 96° East  Level Estimated
04:14AM 41.0209 28.3076 96° East  Level Estimated
04:15AM 41.0094 28.4444 96° East  Level Estimated
04:16AM 40.9978 28.5811 96° East  Level Estimated
04:17AM 40.9859 28.7178 96° East  Level Estimated
04:18AM 40.9769 28.8211 97° East  Level Estimated
04:19AM 40.9769 28.8211 21° North  Level Estimated
04:20AM 40.9769 28.8211 21° North  Level Estimated
04:21AM 40.9769 28.8211 21° North  Level Estimated
04:22AM 40.9769 28.8211 21° North  Level Estimated
04:23AM 40.9769 28.8211 21° North  Level Estimated
04:24AM 40.9769 28.8211 21° North  Level Estimated
04:25AM 40.9769 28.8211 21° North  Level Estimated
04:26AM 40.9769 28.8211 21° North  Level Estimated
04:27AM 40.9769 28.8211 21° North  Level Estimated
04:28AM 40.9769 28.8211 21° North  Level Estimated
04:29AM 40.9769 28.8211 21° North  Level Estimated
04:30AM 40.9769 28.8211 21° North  Level Estimated
04:31AM 40.9769 28.8211 21° North  Level Estimated
04:32AM 40.9769 28.8211 21° North  Level Estimated
04:33AM 40.9769 28.8211 21° North  Level Estimated